Portada
METAR-TAF:

METAR-TAF

Aeroports :

Pella Municipal Airport

Pella, Iowa, Estats Units d'Amèrica

latitud: 41-24N, longitud: 092-56W, altitud: 270 m

Observació

L'informe es va fer fa 11 minuts, a les 18:35 UTC
Vent 14 kt del Sud-Est amb ràfegues de 22 kt, variant entre Est i Sud/Sud-Est
Temperatura 28°C
Humitat 62%
Pressió 1009 hPa
Visibilitat: 16.1 km
Núvols disperses a una alçada de 3800 ft

METAR: KPEA 261835Z AUTO 13014G22KT 090V150 10SM SCT038 28/20 A2980 RMK AO2 T02790195

Hora: 13:46 (18:46 UTC)


TAF: manca

Observacions i pronòstics meteorològics de més de 4000 aeroports (METAR i TAF).

Les estacions disponibles són els punts grocs i vermells al mapa.

Posi el ratolí al punt desitjat per veure el nom de l'estació.

Feu clic per veure les observacions i els pronòstics meteorològics.

Per canviar el mapa: feu clic els botons verds amb una creu de color negre per apropar; al botó verd amb un guió per allunyar la imatge; o en les fletxes verdes per a mapes adjacents.


METAR-TAF: